Time;durP1;ratioP1;P1;durP2;ratioP2;P2;SDS_P1;SDS_P2;PMS_P1;PMS_P2;Temp;Humidity;BMP_temperature;BMP_pressure;BME280_temperature;BME280_humidity;BME280_pressure;Samples;Min_cycle;Max_cycle;Signal;HPM_P1;HPM_P2
2021/03/06 00:00:55;;;;;;;4.13;2.30;;;23.50;52.20;;;;;;5073560;28;20044;-46
2021/03/06 00:03:24;;;;;;;4.18;2.22;;;23.50;52.20;;;;;;5074416;28;20056;-46
2021/03/06 00:05:53;;;;;;;5.47;2.60;;;23.50;52.10;;;;;;5073623;28;20390;-43
2021/03/06 00:08:23;;;;;;;3.72;2.17;;;23.50;52.10;;;;;;5073911;28;20048;-43
2021/03/06 00:10:52;;;;;;;6.07;2.70;;;23.50;52.00;;;;;;5073460;28;20429;-43
2021/03/06 00:13:19;;;;;;;4.35;2.33;;;23.50;52.00;;;;;;5073971;28;20060;-44
2021/03/06 00:15:46;;;;;;;5.20;2.75;;;23.50;52.00;;;;;;5074129;28;20040;-44
2021/03/06 00:18:12;;;;;;;4.18;2.00;;;23.40;51.80;;;;;;5073973;28;20098;-43
2021/03/06 00:20:39;;;;;;;4.05;2.55;;;23.50;51.90;;;;;;5072867;28;20498;-45
2021/03/06 00:23:05;;;;;;;3.28;2.42;;;23.50;51.80;;;;;;5073987;28;20080;-43
2021/03/06 00:25:32;;;;;;;5.90;2.65;;;23.40;51.70;;;;;;5072003;28;20106;-43
2021/03/06 00:27:59;;;;;;;4.25;2.25;;;23.50;51.80;;;;;;5073575;28;20622;-43
2021/03/06 00:30:25;;;;;;;6.80;2.33;;;23.40;51.70;;;;;;5073724;28;20056;-45
2021/03/06 00:32:52;;;;;;;4.13;2.40;;;23.40;51.60;;;;;;5073736;28;20385;-45
2021/03/06 00:35:20;;;;;;;6.30;2.88;;;23.40;51.60;;;;;;5073028;28;20121;-43
2021/03/06 00:37:47;;;;;;;4.78;2.45;;;23.40;51.50;;;;;;5072968;28;20044;-43
2021/03/06 00:40:14;;;;;;;5.18;2.20;;;23.40;52.20;;;;;;5073190;28;20448;-43
2021/03/06 00:42:40;;;;;;;6.22;2.40;;;23.40;51.50;;;;;;5072528;28;20072;-43
2021/03/06 00:45:08;;;;;;;3.55;2.55;;;23.40;51.50;;;;;;5073660;28;20492;-43
2021/03/06 00:47:36;;;;;;;3.95;2.40;;;23.40;51.40;;;;;;5073127;28;20048;-43
2021/03/06 00:50:17;;;;;;;5.32;2.33;;;23.40;51.40;;;;;;5072213;28;20075;-43
2021/03/06 00:52:44;;;;;;;5.13;2.45;;;23.40;51.30;;;;;;5072791;28;20451;-43
2021/03/06 00:55:11;;;;;;;5.57;2.53;;;23.40;51.30;;;;;;5073072;28;20049;-43
2021/03/06 00:57:37;;;;;;;3.85;2.53;;;23.30;51.30;;;;;;5072191;28;20500;-45
2021/03/06 01:00:05;;;;;;;3.28;1.83;;;23.40;51.30;;;;;;5073027;28;20048;-47
2021/03/06 01:02:32;;;;;;;5.38;2.65;;;23.30;51.20;;;;;;5072882;28;20044;-45
2021/03/06 01:04:59;;;;;;;3.70;2.15;;;23.30;51.10;;;;;;5072847;28;20135;-49
2021/03/06 01:07:25;;;;;;;4.00;2.30;;;23.30;51.10;;;;;;5071948;28;20080;-50
2021/03/06 01:09:52;;;;;;;5.25;2.03;;;23.30;51.10;;;;;;5072664;28;20060;-44
2021/03/06 01:12:18;;;;;;;3.50;2.40;;;23.40;51.10;;;;;;5071738;28;20048;-47
2021/03/06 01:14:45;;;;;;;3.47;2.35;;;23.30;51.00;;;;;;5072679;28;20090;-45
2021/03/06 01:17:12;;;;;;;5.47;2.28;;;23.30;51.00;;;;;;5071603;28;20068;-48
2021/03/06 01:19:39;;;;;;;3.78;2.35;;;23.30;51.00;;;;;;5072865;28;20066;-49
2021/03/06 01:22:06;;;;;;;4.25;2.45;;;23.40;51.00;;;;;;5072121;28;20475;-49
2021/03/06 01:24:36;;;;;;;3.95;2.10;;;23.30;50.90;;;;;;5071486;28;20052;-47
2021/03/06 01:27:03;;;;;;;5.00;2.38;;;23.30;50.90;;;;;;5071795;28;20135;-48
2021/03/06 01:29:29;;;;;;;3.50;2.13;;;23.40;50.90;;;;;;5072604;28;20558;-45
2021/03/06 01:31:56;;;;;;;3.17;2.20;;;23.30;50.80;;;;;;5072388;28;20048;-43
2021/03/06 01:34:24;;;;;;;3.97;2.40;;;23.30;50.80;;;;;;5072348;28;20058;-43
2021/03/06 01:36:52;;;;;;;5.25;2.42;;;23.30;50.80;;;;;;5071670;28;20041;-43
2021/03/06 01:39:19;;;;;;;3.72;2.15;;;23.30;50.70;;;;;;5072736;28;20062;-43
2021/03/06 01:41:46;;;;;;;2.67;1.98;;;23.30;50.70;;;;;;5071728;28;20045;-43
2021/03/06 01:44:12;;;;;;;2.90;2.20;;;23.30;50.70;;;;;;5071415;28;20082;-43
2021/03/06 01:46:39;;;;;;;4.43;2.67;;;23.30;50.70;;;;;;5072227;28;20063;-43
2021/03/06 01:49:06;;;;;;;3.53;2.15;;;23.30;50.70;;;;;;5072765;28;20052;-44
2021/03/06 01:51:33;;;;;;;4.00;2.20;;;23.30;51.20;;;;;;5071546;28;20526;-43
2021/03/06 01:54:01;;;;;;;5.15;2.47;;;23.30;50.70;;;;;;5072283;28;20053;-46
2021/03/06 01:56:31;;;;;;;4.68;2.15;;;23.30;50.60;;;;;;5072489;28;20127;-43
2021/03/06 01:58:58;;;;;;;4.07;2.30;;;23.30;50.60;;;;;;5071960;28;20041;-43
2021/03/06 02:01:25;;;;;;;4.13;2.00;;;23.30;50.50;;;;;;5072243;28;20053;-44
2021/03/06 02:03:52;;;;;;;3.45;2.38;;;23.20;50.40;;;;;;5072589;28;20062;-44
2021/03/06 02:06:19;;;;;;;3.17;2.15;;;23.30;50.50;;;;;;5071507;28;20053;-44
2021/03/06 02:08:48;;;;;;;4.20;2.20;;;23.20;50.40;;;;;;5072274;28;20538;-44
2021/03/06 02:11:54;;;;;;;3.50;2.25;;;23.20;50.40;;;;;;5071112;28;20412;-43
2021/03/06 02:15:07;;;;;;;3.63;2.35;;;23.30;50.50;;;;;;5013488;28;20049;-44
2021/03/06 02:17:55;;;;;;;4.25;2.47;;;23.30;50.40;;;;;;4997188;28;20103;-43
2021/03/06 02:20:24;;;;;;;5.47;2.33;;;23.20;50.30;;;;;;5030065;28;20057;-44
2021/03/06 02:23:08;;;;;;;3.72;2.30;;;23.20;50.30;;;;;;5030431;28;20053;-44
2021/03/06 02:26:04;;;;;;;2.75;2.20;;;23.20;50.30;;;;;;5033850;28;20072;-44
2021/03/06 02:28:40;;;;;;;5.32;2.30;;;23.20;50.30;;;;;;5032984;28;20516;-47
2021/03/06 02:31:10;;;;;;;3.50;2.40;;;23.20;50.30;;;;;;5033565;28;20053;-43
2021/03/06 02:33:40;;;;;;;3.42;2.08;;;23.20;50.30;;;;;;5033602;28;20045;-44
2021/03/06 02:36:11;;;;;;;2.60;2.10;;;23.20;50.20;;;;;;5033708;28;20045;-44
2021/03/06 02:38:41;;;;;;;4.53;2.65;;;23.20;50.20;;;;;;5032691;28;20045;-48
2021/03/06 02:41:11;;;;;;;3.67;2.42;;;23.20;50.20;;;;;;5033341;28;20041;-43
2021/03/06 02:43:37;;;;;;;4.75;2.25;;;23.20;50.10;;;;;;5032673;28;20198;-44
2021/03/06 02:46:08;;;;;;;3.05;2.30;;;23.20;50.10;;;;;;5033350;28;20099;-44
2021/03/06 02:48:35;;;;;;;3.70;2.40;;;23.20;50.10;;;;;;5033312;28;20061;-44
2021/03/06 02:51:03;;;;;;;2.85;1.90;;;23.20;50.10;;;;;;5053983;28;20053;-44
2021/03/06 02:53:30;;;;;;;4.07;2.63;;;23.10;50.00;;;;;;5073416;28;20045;-44
2021/03/06 02:55:57;;;;;;;3.05;1.92;;;23.20;50.10;;;;;;5075168;28;20504;-43
2021/03/06 02:58:51;;;;;;;4.80;2.40;;;23.20;50.00;;;;;;5074537;28;20049;-43
2021/03/06 03:01:29;;;;;;;2.28;1.85;;;23.20;50.00;;;;;;5075444;28;20451;-46
2021/03/06 03:04:24;;;;;;;3.28;2.08;;;23.20;50.00;;;;;;5075174;28;20500;-44
2021/03/06 03:07:01;;;;;;;3.25;2.10;;;23.20;50.00;;;;;;5074945;28;20137;-46
2021/03/06 03:09:32;;;;;;;2.47;1.90;;;23.10;49.90;;;;;;5074219;28;20048;-44
2021/03/06 03:12:12;;;;;;;3.97;2.10;;;23.10;49.80;;;;;;5075230;28;20052;-44
2021/03/06 03:14:59;;;;;;;2.90;1.90;;;23.20;49.90;;;;;;5074551;28;20121;-44
2021/03/06 03:17:41;;;;;;;3.28;2.13;;;23.20;49.90;;;;;;5074912;28;20074;-44
2021/03/06 03:20:14;;;;;;;3.92;2.00;;;23.20;49.80;;;;;;5075102;28;20057;-47
2021/03/06 03:22:48;;;;;;;2.92;2.30;;;23.10;49.80;;;;;;5074446;28;20118;-43
2021/03/06 03:25:16;;;;;;;;;;;23.10;49.70;;;;;;5075703;28;20105;-43
2021/03/06 03:27:44;;;;;;;3.45;2.25;;;23.10;49.70;;;;;;5074396;28;20054;-44
2021/03/06 03:30:14;;;;;;;2.30;2.00;;;23.10;49.70;;;;;;5074586;28;20139;-45
2021/03/06 03:32:43;;;;;;;2.60;2.10;;;23.10;49.70;;;;;;5074602;28;20052;-44
2021/03/06 03:35:12;;;;;;;3.10;1.95;;;23.10;49.70;;;;;;5073838;28;20508;-45
2021/03/06 03:37:40;;;;;;;2.90;2.00;;;23.10;49.60;;;;;;5072616;28;20060;-44
2021/03/06 03:40:07;;;;;;;4.10;2.03;;;23.10;49.70;;;;;;5074422;28;20044;-46
2021/03/06 03:42:35;;;;;;;3.47;2.00;;;23.10;49.60;;;;;;5074658;28;20048;-44
2021/03/06 03:45:08;;;;;;;3.10;2.20;;;23.10;49.60;;;;;;5074016;28;20040;-47
2021/03/06 03:47:38;;;;;;;2.70;1.90;;;23.10;49.60;;;;;;5074695;28;20044;-45
2021/03/06 03:50:11;;;;;;;2.92;1.95;;;23.10;49.60;;;;;;5074303;28;20044;-47
2021/03/06 03:52:50;;;;;;;3.65;2.35;;;23.10;49.60;;;;;;5073827;28;20127;-44
2021/03/06 03:55:18;;;;;;;4.10;2.30;;;23.00;49.50;;;;;;5074461;28;20045;-45
2021/03/06 03:57:52;;;;;;;2.72;1.90;;;23.10;49.50;;;;;;5074508;28;20054;-44
2021/03/06 04:00:23;;;;;;;3.92;2.30;;;23.00;49.40;;;;;;5073361;28;20087;-43
2021/03/06 04:02:50;;;;;;;3.22;2.17;;;23.00;49.40;;;;;;5074047;28;20431;-43
2021/03/06 04:05:17;;;;;;;3.22;1.90;;;23.10;49.40;;;;;;5074377;28;20436;-44
2021/03/06 04:07:49;;;;;;;2.45;1.95;;;23.00;49.30;;;;;;5073190;28;20044;-43
2021/03/06 04:10:22;;;;;;;2.50;1.60;;;23.00;49.30;;;;;;5072573;28;20135;-43
2021/03/06 04:12:49;;;;;;;3.83;2.28;;;23.00;49.30;;;;;;5074088;28;20485;-44
2021/03/06 04:15:17;;;;;;;2.90;2.10;;;23.00;49.30;;;;;;5073306;28;20044;-45
2021/03/06 04:17:44;;;;;;;3.13;1.92;;;23.00;49.30;;;;;;5073769;28;20090;-49
2021/03/06 04:20:14;;;;;;;3.03;2.00;;;23.00;49.20;;;;;;5072831;28;20051;-49
2021/03/06 04:22:41;;;;;;;2.90;1.77;;;23.00;49.20;;;;;;5071984;28;20041;-49
2021/03/06 04:25:09;;;;;;;2.85;1.98;;;23.00;49.20;;;;;;5073585;28;20052;-46
2021/03/06 04:27:37;;;;;;;3.60;2.22;;;23.00;49.20;;;;;;5073868;28;20094;-47
2021/03/06 04:30:07;;;;;;;3.30;1.85;;;23.00;49.20;;;;;;5072599;28;20044;-49
2021/03/06 04:32:34;;;;;;;2.55;2.03;;;23.00;49.10;;;;;;5073771;28;20098;-49
2021/03/06 04:35:01;;;;;;;2.70;1.90;;;23.00;49.10;;;;;;5073358;28;20056;-43
2021/03/06 04:37:29;;;;;;;2.63;1.80;;;23.00;49.10;;;;;;5071930;28;20060;-44
2021/03/06 04:39:56;;;;;;;2.35;1.85;;;23.00;49.10;;;;;;5072925;28;20044;-45
2021/03/06 04:42:23;;;;;;;3.28;2.33;;;23.00;49.10;;;;;;5073667;28;20061;-47
2021/03/06 04:44:50;;;;;;;2.22;1.70;;;23.00;49.10;;;;;;5072565;28;20044;-44
2021/03/06 04:47:17;;;;;;;2.25;1.90;;;23.00;49.00;;;;;;5073454;28;20045;-46
2021/03/06 04:49:45;;;;;;;2.88;2.00;;;23.00;49.00;;;;;;5073142;28;20091;-47
2021/03/06 04:52:13;;;;;;;3.28;2.30;;;23.00;49.60;;;;;;5073026;28;20049;-45
2021/03/06 04:54:40;;;;;;;4.05;2.00;;;23.00;49.00;;;;;;5072583;28;20467;-47
2021/03/06 04:57:13;;;;;;;3.20;2.28;;;23.00;48.90;;;;;;5073268;28;20053;-49
2021/03/06 04:59:40;;;;;;;2.60;1.88;;;23.00;48.90;;;;;;5072435;28;20074;-44
2021/03/06 05:02:07;;;;;;;2.30;1.80;;;23.00;48.90;;;;;;5071894;28;20044;-45
2021/03/06 05:04:34;;;;;;;3.08;1.85;;;23.00;48.90;;;;;;5072875;28;20124;-48
2021/03/06 05:07:00;;;;;;;1.90;1.60;;;23.00;48.90;;;;;;5072978;28;20049;-44
2021/03/06 05:09:27;;;;;;;2.67;1.90;;;23.00;48.90;;;;;;5070792;28;20523;-43
2021/03/06 05:11:54;;;;;;;2.83;2.20;;;23.00;48.90;;;;;;5072870;28;20049;-46
2021/03/06 05:14:21;;;;;;;2.22;1.63;;;23.00;48.90;;;;;;5072014;28;20048;-46
2021/03/06 05:16:47;;;;;;;3.10;2.10;;;23.00;48.90;;;;;;5072600;28;20045;-46
2021/03/06 05:19:15;;;;;;;3.30;2.00;;;23.00;48.90;;;;;;5072566;28;20044;-46
2021/03/06 05:21:41;;;;;;;3.05;2.00;;;22.90;48.70;;;;;;5072872;28;20045;-45
2021/03/06 05:24:08;;;;;;;3.15;2.00;;;22.90;48.70;;;;;;5071041;28;20049;-50
2021/03/06 05:26:35;;;;;;;2.47;1.73;;;23.00;48.80;;;;;;5072822;28;20052;-45
2021/03/06 05:29:01;;;;;;;2.42;2.00;;;23.00;48.80;;;;;;5072185;28;20049;-45
2021/03/06 05:31:28;;;;;;;3.13;2.03;;;22.90;48.70;;;;;;5071218;28;20076;-46
2021/03/06 05:33:55;;;;;;;2.78;1.83;;;23.00;48.80;;;;;;5072490;28;20059;-45
2021/03/06 05:36:23;;;;;;;2.65;1.83;;;23.00;48.80;;;;;;5072674;28;20049;-46
2021/03/06 05:38:49;;;;;;;2.58;1.95;;;22.90;48.70;;;;;;5071447;28;20139;-48
2021/03/06 05:41:20;;;;;;;2.92;2.17;;;23.00;48.70;;;;;;5072196;28;20044;-44
2021/03/06 05:43:46;;;;;;;3.25;1.88;;;23.00;48.70;;;;;;5072392;28;20722;-48
2021/03/06 05:46:15;;;;;;;2.85;1.70;;;22.90;48.70;;;;;;5071558;28;20060;-43
2021/03/06 05:48:42;;;;;;;2.15;1.70;;;22.90;48.70;;;;;;5072242;28;20102;-46
2021/03/06 05:51:10;;;;;;;2.53;1.90;;;22.90;48.60;;;;;;5071288;28;20058;-44
2021/03/06 05:53:39;;;;;;;2.22;1.65;;;22.90;48.70;;;;;;5072552;28;20052;-46
2021/03/06 05:56:09;;;;;;;2.17;1.90;;;22.90;48.60;;;;;;5071848;28;20131;-47
2021/03/06 05:58:36;;;;;;;2.95;2.10;;;22.90;48.60;;;;;;5071816;28;20044;-45
2021/03/06 06:01:03;;;;;;;2.70;1.90;;;22.90;48.60;;;;;;5071546;28;20040;-43
2021/03/06 06:03:32;;;;;;;4.70;1.90;;;23.00;48.70;;;;;;5072105;28;20431;-45
2021/03/06 06:05:59;;;;;;;3.15;1.90;;;22.90;48.50;;;;;;5072126;28;20049;-43
2021/03/06 06:08:27;;;;;;;2.17;1.75;;;22.90;48.60;;;;;;5072325;28;20049;-46
2021/03/06 06:10:54;;;;;;;3.35;1.95;;;22.90;48.50;;;;;;5071642;28;20048;-44
2021/03/06 06:13:22;;;;;;;2.40;1.85;;;23.00;48.60;;;;;;5054242;28;20489;-44
2021/03/06 06:15:52;;;;;;;2.80;1.90;;;22.90;48.50;;;;;;5071266;28;20561;-46
2021/03/06 06:18:19;;;;;;;2.58;1.90;;;22.90;48.50;;;;;;5070796;28;20127;-46
2021/03/06 06:20:46;;;;;;;2.58;1.98;;;22.90;48.50;;;;;;5072301;28;20098;-43
2021/03/06 06:23:16;;;;;;;2.38;1.98;;;22.90;48.50;;;;;;5072475;28;20044;-43
2021/03/06 06:25:44;;;;;;;2.17;1.73;;;22.90;48.50;;;;;;5071260;28;20135;-44
2021/03/06 06:28:18;;;;;;;2.88;2.03;;;23.00;48.50;;;;;;5072480;28;20102;-44
2021/03/06 06:31:08;;;;;;;2.92;1.98;;;22.90;48.40;;;;;;5070972;28;20804;-45
2021/03/06 06:33:35;;;;;;;2.50;1.98;;;22.90;48.40;;;;;;5072185;28;20045;-44
2021/03/06 06:36:02;;;;;;;2.85;1.92;;;23.00;48.50;;;;;;5054483;28;20396;-44
2021/03/06 06:38:41;;;;;;;2.97;2.03;;;22.90;48.40;;;;;;5071582;28;20420;-50
2021/03/06 06:41:08;;;;;;;2.67;1.70;;;23.00;48.50;;;;;;5070860;28;20056;-44
2021/03/06 06:43:35;;;;;;;2.67;2.00;;;23.00;48.50;;;;;;5071750;28;20044;-43
2021/03/06 06:46:02;;;;;;;2.28;1.85;;;23.00;48.40;;;;;;5071012;28;20045;-45
2021/03/06 06:48:29;;;;;;;2.72;1.83;;;23.00;48.40;;;;;;5072004;28;20059;-44
2021/03/06 06:51:10;;;;;;;2.28;1.67;;;23.00;48.40;;;;;;5071982;28;20092;-46
2021/03/06 06:53:36;;;;;;;2.45;1.83;;;23.00;48.40;;;;;;5071694;28;20053;-44
2021/03/06 06:56:24;;;;;;;2.85;2.00;;;23.00;48.40;;;;;;5070814;28;20045;-45
2021/03/06 06:58:51;;;;;;;2.75;2.08;;;23.00;48.30;;;;;;5071917;28;20049;-44
2021/03/06 07:01:36;;;;;;;2.20;1.55;;;23.00;48.40;;;;;;5070984;28;20045;-44
2021/03/06 07:04:09;;;;;;;2.45;1.80;;;23.00;48.30;;;;;;5071510;28;20080;-43
2021/03/06 07:06:40;;;;;;;2.08;1.70;;;23.00;48.30;;;;;;5071558;28;20052;-43
2021/03/06 07:09:14;;;;;;;2.75;1.75;;;23.00;48.30;;;;;;5071561;28;20053;-44
2021/03/06 07:11:42;;;;;;;2.25;1.60;;;23.00;48.30;;;;;;5074200;28;20053;-43
2021/03/06 07:14:09;;;;;;;2.97;1.90;;;23.00;48.20;;;;;;5075068;28;20102;-43
2021/03/06 07:16:59;;;;;;;2.83;1.83;;;23.00;48.20;;;;;;5074489;28;20054;-43
2021/03/06 07:19:32;;;;;;;1.63;1.52;;;23.00;48.20;;;;;;5075269;28;20048;-44
2021/03/06 07:21:59;;;;;;;2.83;1.80;;;23.00;48.20;;;;;;5074049;28;20633;-46
2021/03/06 07:24:28;;;;;;;2.22;1.95;;;23.00;48.20;;;;;;5075115;28;20049;-46
2021/03/06 07:26:55;;;;;;;2.42;1.67;;;23.00;48.20;;;;;;5074275;28;20476;-46
2021/03/06 07:29:25;;;;;;;2.30;1.77;;;23.00;48.20;;;;;;5073371;28;20098;-44
2021/03/06 07:31:54;;;;;;;2.22;1.65;;;23.00;48.10;;;;;;5074397;28;20052;-45
2021/03/06 07:34:27;;;;;;;2.53;1.92;;;23.00;48.10;;;;;;5074640;28;20488;-48
2021/03/06 07:37:06;;;;;;;1.75;1.52;;;23.00;48.10;;;;;;5074537;28;20484;-44
2021/03/06 07:39:37;;;;;;;1.73;1.60;;;23.00;48.10;;;;;;5074716;28;20098;-44
2021/03/06 07:42:08;;;;;;;2.80;1.63;;;23.00;48.10;;;;;;5073974;28;20055;-48
2021/03/06 07:44:39;;;;;;;2.90;1.73;;;23.00;48.00;;;;;;5074932;28;20101;-48
2021/03/06 07:47:09;;;;;;;2.63;1.95;;;23.00;48.00;;;;;;5073760;28;20052;-48
2021/03/06 07:49:37;;;;;;;2.50;1.75;;;23.00;48.00;;;;;;5074380;28;20048;-51
2021/03/06 07:52:09;;;;;;;2.55;1.85;;;23.00;48.00;;;;;;5074645;28;20055;-47
2021/03/06 07:54:38;;;;;;;2.55;1.75;;;23.00;48.00;;;;;;5074656;28;20466;-47
2021/03/06 07:57:05;;;;;;;3.30;1.85;;;23.00;48.00;;;;;;5073393;28;20518;-47
2021/03/06 07:59:48;;;;;;;2.50;1.98;;;23.00;48.00;;;;;;5074003;28;20055;-49
2021/03/06 08:02:33;;;;;;;2.28;1.85;;;23.00;48.00;;;;;;5073423;28;20045;-49
2021/03/06 08:05:45;;;;;;;2.05;1.55;;;23.00;47.90;;;;;;5074231;28;20052;-47
2021/03/06 08:08:35;;;;;;;1.77;1.55;;;23.00;47.90;;;;;;5073029;28;20122;-44
2021/03/06 08:11:05;;;;;;;2.67;1.70;;;23.00;48.00;;;;;;5072971;28;20140;-46
2021/03/06 08:13:40;;;;;;;2.33;1.60;;;23.00;47.90;;;;;;5073901;28;20059;-44
2021/03/06 08:16:22;;;;;;;3.30;1.73;;;23.00;47.90;;;;;;5073125;28;20048;-44
2021/03/06 08:18:50;;;;;;;2.42;1.63;;;23.00;47.90;;;;;;5073999;28;20109;-46
2021/03/06 08:21:35;;;;;;;3.05;2.10;;;23.00;47.90;;;;;;5073732;28;20055;-49
2021/03/06 08:24:24;;;;;;;3.17;2.00;;;23.00;47.80;;;;;;5073894;28;20045;-45
2021/03/06 08:27:10;;;;;;;3.25;2.05;;;23.00;47.80;;;;;;5073203;28;20113;-45
2021/03/06 08:29:51;;;;;;;2.17;1.70;;;23.00;47.80;;;;;;5073703;28;20410;-45
2021/03/06 08:32:24;;;;;;;1.75;1.60;;;23.00;47.80;;;;;;5072795;28;20053;-47
2021/03/06 08:34:53;;;;;;;2.55;1.60;;;23.00;47.80;;;;;;5073383;28;20135;-44
2021/03/06 08:37:20;;;;;;;2.50;2.00;;;23.00;47.80;;;;;;5073173;28;20056;-47
2021/03/06 08:39:58;;;;;;;2.10;1.67;;;23.00;47.80;;;;;;5073131;28;20041;-48
2021/03/06 08:42:38;;;;;;;2.70;1.85;;;23.10;47.90;;;;;;5072623;28;20415;-44
2021/03/06 08:45:14;;;;;;;2.17;1.80;;;23.00;47.70;;;;;;5073239;28;20501;-49
2021/03/06 08:47:43;;;;;;;1.55;1.30;;;23.00;47.80;;;;;;5069347;28;20045;-46
2021/03/06 08:50:18;;;;;;;2.08;1.83;;;23.10;47.80;;;;;;5058762;28;20056;-44
2021/03/06 08:53:03;;;;;;;1.77;1.50;;;23.10;47.80;;;;;;5072309;28;20048;-43
2021/03/06 08:55:34;;;;;;;2.13;1.70;;;23.10;47.90;;;;;;5052943;28;20497;-43
2021/03/06 08:58:06;;;;;;;2.67;1.80;;;23.10;48.00;;;;;;5072449;28;20481;-44
2021/03/06 09:00:55;;;;;;;6.57;1.83;;;23.10;48.00;;;;;;5072391;28;20476;-45
2021/03/06 09:03:26;;;;;;;1.90;1.48;;;23.10;48.00;;;;;;5069743;28;20045;-44
2021/03/06 09:05:56;;;;;;;2.63;1.73;;;23.10;48.00;;;;;;5073020;28;20078;-43
2021/03/06 09:08:24;;;;;;;3.35;1.70;;;23.10;47.90;;;;;;5071657;28;20097;-44
2021/03/06 09:10:52;;;;;;;2.35;1.60;;;23.10;47.90;;;;;;5081544;28;20044;-46
2021/03/06 09:13:22;;;;;;;2.33;2.00;;;23.10;48.00;;;;;;5055262;28;20047;-48
2021/03/06 09:15:54;;;;;;;5.90;2.03;;;23.10;47.90;;;;;;5072524;28;20056;-44
2021/03/06 09:18:23;;;;;;;2.72;1.80;;;23.20;48.10;;;;;;5077522;28;20045;-44
2021/03/06 09:20:53;;;;;;;2.28;1.60;;;23.20;48.00;;;;;;5072921;28;20094;-45
2021/03/06 09:23:44;;;;;;;2.42;1.60;;;23.20;48.00;;;;;;5072909;28;20094;-44
2021/03/06 09:26:16;;;;;;;2.33;1.83;;;23.20;48.00;;;;;;5064580;28;20045;-44
2021/03/06 09:28:45;;;;;;;2.20;1.73;;;23.20;48.00;;;;;;5073039;28;20427;-44
2021/03/06 09:31:18;;;;;;;4.57;1.85;;;23.20;47.90;;;;;;5072629;28;20049;-46
2021/03/06 09:33:45;;;;;;;3.83;1.57;;;23.20;48.10;;;;;;5071566;28;20078;-43
2021/03/06 09:36:14;;;;;;;3.55;1.80;;;23.20;48.70;;;;;;5072276;28;20056;-47
2021/03/06 09:38:52;;;;;;;4.13;1.77;;;23.20;48.10;;;;;;5072170;28;20063;-44
2021/03/06 09:41:22;;;;;;;4.20;1.70;;;23.20;48.10;;;;;;5071659;28;20047;-50
2021/03/06 09:43:52;;;;;;;5.60;1.70;;;23.20;48.00;;;;;;5072783;28;20414;-44
2021/03/06 09:46:28;;;;;;;5.35;1.55;;;23.20;47.90;;;;;;5080963;28;20131;-43
2021/03/06 09:48:58;;;;;;;5.07;1.42;;;23.20;47.90;;;;;;5072174;28;20101;-43
2021/03/06 09:51:42;;;;;;;2.97;1.45;;;23.20;47.80;;;;;;5073106;28;20052;-42
2021/03/06 09:54:10;;;;;;;2.60;1.50;;;23.20;47.70;;;;;;5072489;28;20048;-45
2021/03/06 09:56:51;;;;;;;2.17;1.60;;;23.20;47.80;;;;;;5071994;28;20488;-43
2021/03/06 09:59:19;;;;;;;5.22;2.13;;;23.20;47.80;;;;;;5071207;28;20090;-45
2021/03/06 10:01:46;;;;;;;2.65;1.77;;;23.20;47.70;;;;;;5073107;28;20048;-43
2021/03/06 10:04:15;;;;;;;2.45;1.80;;;23.20;47.70;;;;;;5072349;28;20080;-43
2021/03/06 10:06:49;;;;;;;1.98;1.60;;;23.20;47.60;;;;;;5073058;28;20074;-43
2021/03/06 10:09:18;;;;;;;2.88;1.60;;;23.20;47.60;;;;;;5072735;28;20502;-43
2021/03/06 10:11:47;;;;;;;2.38;1.63;;;23.20;47.50;;;;;;5072382;28;20094;-43
2021/03/06 10:14:20;;;;;;;3.17;1.77;;;23.20;47.50;;;;;;5071578;28;20048;-43
2021/03/06 10:16:51;;;;;;;5.38;1.95;;;23.20;47.50;;;;;;5072950;28;20041;-43
2021/03/06 10:19:21;;;;;;;4.40;1.95;;;23.20;47.40;;;;;;5072209;28;20420;-43
2021/03/06 10:21:59;;;;;;;2.25;1.50;;;23.20;47.40;;;;;;5072630;28;20049;-44
2021/03/06 10:24:27;;;;;;;5.03;1.90;;;23.20;47.40;;;;;;5072979;28;20048;-43
2021/03/06 10:26:58;;;;;;;3.33;1.80;;;23.20;47.40;;;;;;5071840;28;20055;-43
2021/03/06 10:29:28;;;;;;;1.83;1.60;;;23.20;47.30;;;;;;5072699;28;20048;-43
2021/03/06 10:32:02;;;;;;;2.95;1.88;;;23.20;47.30;;;;;;5072907;28;20048;-43
2021/03/06 10:34:49;;;;;;;1.98;1.48;;;23.20;47.30;;;;;;5072113;28;20048;-45
2021/03/06 10:37:19;;;;;;;2.70;1.70;;;23.20;47.30;;;;;;5072421;28;20492;-45
2021/03/06 10:40:07;;;;;;;2.70;1.70;;;23.20;47.30;;;;;;5072628;28;20086;-44
2021/03/06 10:42:53;;;;;;;2.15;1.65;;;23.20;47.30;;;;;;5072256;28;20045;-43
2021/03/06 10:45:29;;;;;;;2.97;1.40;;;23.20;47.30;;;;;;5076603;28;20044;-46
2021/03/06 10:47:58;;;;;;;3.28;1.80;;;23.20;47.30;;;;;;5075404;28;20053;-43
2021/03/06 10:50:33;;;;;;;4.60;1.35;;;23.20;47.20;;;;;;5076160;28;20076;-44
2021/03/06 10:53:20;;;;;;;2.70;1.85;;;23.20;47.20;;;;;;5076090;28;20088;-44
2021/03/06 10:55:48;;;;;;;4.05;1.75;;;23.20;47.20;;;;;;5075004;28;20393;-48
2021/03/06 10:58:17;;;;;;;3.67;1.98;;;23.20;47.20;;;;;;5074060;28;20044;-45
2021/03/06 11:00:46;;;;;;;2.05;1.58;;;23.20;47.10;;;;;;5075946;28;20044;-43
2021/03/06 11:03:14;;;;;;;2.08;1.55;;;23.20;47.10;;;;;;5075715;28;20098;-47
2021/03/06 11:05:43;;;;;;;3.17;1.80;;;23.20;47.10;;;;;;5075858;28;20040;-47
2021/03/06 11:08:21;;;;;;;2.00;1.48;;;23.20;47.10;;;;;;5076115;28;20454;-46
2021/03/06 11:10:51;;;;;;;3.00;1.95;;;23.20;47.10;;;;;;5075999;28;20045;-50
2021/03/06 11:13:19;;;;;;;2.08;1.60;;;23.20;47.10;;;;;;5074312;28;20076;-46
2021/03/06 11:15:51;;;;;;;2.30;1.50;;;23.20;47.10;;;;;;5076017;28;20056;-44
2021/03/06 11:18:19;;;;;;;3.25;1.30;;;23.20;47.10;;;;;;5075156;28;20785;-46
2021/03/06 11:20:48;;;;;;;3.95;1.55;;;23.20;47.10;;;;;;5075524;28;20040;-45
2021/03/06 11:23:16;;;;;;;2.10;1.48;;;23.20;47.10;;;;;;5075481;28;20048;-45
2021/03/06 11:25:42;;;;;;;2.58;1.80;;;23.20;47.10;;;;;;5075516;28;20052;-44
2021/03/06 11:28:12;;;;;;;2.53;1.63;;;23.20;47.00;;;;;;5074700;28;20045;-43
2021/03/06 11:30:45;;;;;;;1.95;1.58;;;23.20;47.00;;;;;;5075855;28;20407;-45
2021/03/06 11:33:17;;;;;;;1.65;1.42;;;23.20;47.00;;;;;;5073688;28;20488;-47
2021/03/06 11:35:46;;;;;;;2.63;1.50;;;23.20;47.00;;;;;;5075313;28;20492;-43
2021/03/06 11:38:15;;;;;;;2.30;1.48;;;23.20;47.00;;;;;;5075138;28;20048;-44
2021/03/06 11:40:45;;;;;;;1.88;1.52;;;23.20;47.00;;;;;;5075321;28;20114;-48
2021/03/06 11:43:12;;;;;;;1.48;1.27;;;23.30;47.10;;;;;;5073384;28;20057;-43
2021/03/06 11:45:40;;;;;;;3.42;1.48;;;23.20;47.00;;;;;;5075108;28;20520;-47
2021/03/06 11:48:08;;;;;;;2.20;1.60;;;23.20;47.00;;;;;;5075146;28;20059;-42
2021/03/06 11:50:39;;;;;;;2.17;1.63;;;23.30;47.10;;;;;;5056911;28;20102;-43
2021/03/06 11:53:06;;;;;;;2.70;1.45;;;23.20;46.90;;;;;;5075034;28;20045;-43
2021/03/06 11:55:34;;;;;;;2.13;1.38;;;23.20;46.90;;;;;;5074300;28;20052;-46
2021/03/06 11:58:02;;;;;;;2.53;1.55;;;23.30;47.10;;;;;;5074449;28;20053;-46
2021/03/06 12:00:31;;;;;;;2.20;1.60;;;23.20;46.90;;;;;;5074710;28;20044;-43
2021/03/06 12:02:58;;;;;;;2.67;1.60;;;23.20;47.00;;;;;;5074798;28;20048;-49
2021/03/06 12:05:25;;;;;;;2.88;1.35;;;23.20;46.90;;;;;;5074347;28;20400;-44
2021/03/06 12:07:53;;;;;;;2.08;1.50;;;23.20;46.90;;;;;;5074680;28;20500;-43
2021/03/06 12:10:22;;;;;;;2.30;1.60;;;23.20;46.90;;;;;;5074457;28;20569;-46
2021/03/06 12:12:49;;;;;;;1.88;1.40;;;23.20;46.90;;;;;;5074348;28;20052;-44
2021/03/06 12:15:17;;;;;;;2.35;1.55;;;23.30;47.00;;;;;;5074782;28;20060;-44
2021/03/06 12:17:46;;;;;;;2.53;1.70;;;23.20;46.90;;;;;;5075008;28;20481;-45
2021/03/06 12:20:15;;;;;;;2.50;1.77;;;23.20;46.90;;;;;;5074299;28;20056;-45
2021/03/06 12:22:43;;;;;;;3.40;1.73;;;23.20;46.90;;;;;;5074745;28;20040;-46
2021/03/06 12:25:10;;;;;;;2.33;1.60;;;23.20;46.90;;;;;;5074713;28;20063;-46
2021/03/06 12:27:38;;;;;;;2.10;1.40;;;23.20;46.90;;;;;;5074589;28;20048;-46
2021/03/06 12:30:11;;;;;;;2.08;1.50;;;23.20;46.90;;;;;;5073374;28;20048;-43
2021/03/06 12:32:38;;;;;;;1.73;1.45;;;23.30;47.00;;;;;;5074287;28;20492;-43
2021/03/06 12:35:08;;;;;;;1.90;1.52;;;23.20;46.90;;;;;;5073404;28;20048;-43
2021/03/06 12:37:35;;;;;;;2.25;1.75;;;23.30;47.00;;;;;;5074090;28;20053;-43
2021/03/06 12:40:04;;;;;;;1.55;1.30;;;23.30;47.00;;;;;;5072706;28;20041;-43
2021/03/06 12:42:31;;;;;;;1.65;1.38;;;23.20;46.90;;;;;;5073870;28;20094;-43
2021/03/06 12:44:58;;;;;;;1.73;1.27;;;23.20;46.90;;;;;;5073586;28;20086;-44
2021/03/06 12:47:24;;;;;;;2.33;1.70;;;23.30;47.00;;;;;;5072909;28;20051;-48
2021/03/06 12:49:52;;;;;;;1.73;1.60;;;23.30;47.00;;;;;;5073143;28;20053;-43
2021/03/06 12:52:18;;;;;;;2.22;1.42;;;23.30;47.00;;;;;;5074169;28;20113;-44
2021/03/06 12:54:45;;;;;;;2.92;1.40;;;23.20;46.90;;;;;;5074089;28;20044;-44
2021/03/06 12:57:12;;;;;;;2.00;1.38;;;23.30;47.00;;;;;;5073537;28;20098;-43
2021/03/06 12:59:38;;;;;;;1.67;1.10;;;23.30;47.00;;;;;;5072852;28;20103;-44
2021/03/06 13:02:05;;;;;;;2.10;1.30;;;23.30;47.00;;;;;;5072465;28;20083;-43
2021/03/06 13:04:32;;;;;;;1.67;1.40;;;23.30;47.00;;;;;;5073117;28;20072;-43
2021/03/06 13:06:59;;;;;;;2.00;1.60;;;23.30;47.00;;;;;;5073044;28;20052;-45